sensor_id;sensor_type;location;lat;lon;timestamp;P1;durP1;ratioP1;P2;durP2;ratioP2
5912;SDS011;2982;42.684;23.356;2022-11-06T00:00:35;37.65;;;22.30;;
5912;SDS011;2982;42.684;23.356;2022-11-06T00:03:02;33.42;;;21.77;;
5912;SDS011;2982;42.684;23.356;2022-11-06T00:05:30;34.72;;;20.45;;
5912;SDS011;2982;42.684;23.356;2022-11-06T00:07:56;35.03;;;21.77;;
5912;SDS011;2982;42.684;23.356;2022-11-06T00:10:22;39.22;;;21.45;;
5912;SDS011;2982;42.684;23.356;2022-11-06T00:12:47;35.40;;;20.98;;
5912;SDS011;2982;42.684;23.356;2022-11-06T00:15:13;36.53;;;20.27;;
5912;SDS011;2982;42.684;23.356;2022-11-06T00:17:38;33.03;;;20.73;;
5912;SDS011;2982;42.684;23.356;2022-11-06T00:20:04;32.70;;;20.95;;
5912;SDS011;2982;42.684;23.356;2022-11-06T00:22:31;34.78;;;20.58;;
5912;SDS011;2982;42.684;23.356;2022-11-06T00:24:57;36.30;;;20.98;;
5912;SDS011;2982;42.684;23.356;2022-11-06T00:27:25;37.35;;;23.73;;
5912;SDS011;2982;42.684;23.356;2022-11-06T00:29:53;37.85;;;21.63;;
5912;SDS011;2982;42.684;23.356;2022-11-06T00:32:19;40.13;;;20.75;;
5912;SDS011;2982;42.684;23.356;2022-11-06T00:34:45;40.45;;;21.42;;
5912;SDS011;2982;42.684;23.356;2022-11-06T00:37:11;30.88;;;20.40;;
5912;SDS011;2982;42.684;23.356;2022-11-06T00:39:36;38.40;;;22.13;;
5912;SDS011;2982;42.684;23.356;2022-11-06T00:42:07;43.45;;;23.15;;
5912;SDS011;2982;42.684;23.356;2022-11-06T00:44:32;38.42;;;23.13;;
5912;SDS011;2982;42.684;23.356;2022-11-06T00:46:57;38.17;;;21.35;;
5912;SDS011;2982;42.684;23.356;2022-11-06T00:49:23;37.08;;;21.33;;
5912;SDS011;2982;42.684;23.356;2022-11-06T00:51:48;35.53;;;21.73;;
5912;SDS011;2982;42.684;23.356;2022-11-06T00:54:13;36.92;;;22.15;;
5912;SDS011;2982;42.684;23.356;2022-11-06T00:56:39;37.38;;;21.23;;
5912;SDS011;2982;42.684;23.356;2022-11-06T00:59:09;34.30;;;20.25;;
5912;SDS011;2982;42.684;23.356;2022-11-06T01:01:41;36.75;;;21.10;;
5912;SDS011;2982;42.684;23.356;2022-11-06T01:04:12;35.53;;;19.48;;
5912;SDS011;2982;42.684;23.356;2022-11-06T01:06:41;38.42;;;21.00;;
5912;SDS011;2982;42.684;23.356;2022-11-06T01:09:08;29.55;;;19.30;;
5912;SDS011;2982;42.684;23.356;2022-11-06T01:11:37;34.65;;;20.42;;
5912;SDS011;2982;42.684;23.356;2022-11-06T01:14:11;38.08;;;20.00;;
5912;SDS011;2982;42.684;23.356;2022-11-06T01:16:40;31.65;;;19.70;;
5912;SDS011;2982;42.684;23.356;2022-11-06T01:19:05;35.00;;;20.52;;
5912;SDS011;2982;42.684;23.356;2022-11-06T01:21:35;29.20;;;19.17;;
5912;SDS011;2982;42.684;23.356;2022-11-06T01:24:03;34.38;;;18.80;;
5912;SDS011;2982;42.684;23.356;2022-11-06T01:26:41;35.30;;;19.50;;
5912;SDS011;2982;42.684;23.356;2022-11-06T01:29:08;36.10;;;21.00;;
5912;SDS011;2982;42.684;23.356;2022-11-06T01:31:38;31.60;;;17.33;;
5912;SDS011;2982;42.684;23.356;2022-11-06T01:34:04;25.10;;;16.42;;
5912;SDS011;2982;42.684;23.356;2022-11-06T01:36:32;26.90;;;17.02;;
5912;SDS011;2982;42.684;23.356;2022-11-06T01:38:58;22.85;;;13.95;;
5912;SDS011;2982;42.684;23.356;2022-11-06T01:41:30;18.92;;;11.93;;
5912;SDS011;2982;42.684;23.356;2022-11-06T01:43:59;18.85;;;11.07;;
5912;SDS011;2982;42.684;23.356;2022-11-06T01:46:27;16.48;;;12.23;;
5912;SDS011;2982;42.684;23.356;2022-11-06T01:49:00;24.55;;;14.18;;
5912;SDS011;2982;42.684;23.356;2022-11-06T01:51:38;22.65;;;14.15;;
5912;SDS011;2982;42.684;23.356;2022-11-06T01:54:10;21.52;;;13.07;;
5912;SDS011;2982;42.684;23.356;2022-11-06T01:56:37;19.83;;;13.40;;
5912;SDS011;2982;42.684;23.356;2022-11-06T01:59:04;24.80;;;14.68;;
5912;SDS011;2982;42.684;23.356;2022-11-06T02:01:31;20.65;;;13.68;;
5912;SDS011;2982;42.684;23.356;2022-11-06T02:03:58;21.15;;;13.65;;
5912;SDS011;2982;42.684;23.356;2022-11-06T02:06:30;21.38;;;13.82;;
5912;SDS011;2982;42.684;23.356;2022-11-06T02:08:56;17.65;;;12.68;;
5912;SDS011;2982;42.684;23.356;2022-11-06T02:11:21;18.35;;;13.18;;
5912;SDS011;2982;42.684;23.356;2022-11-06T02:13:57;20.60;;;13.15;;
5912;SDS011;2982;42.684;23.356;2022-11-06T02:32:10;13.27;;;9.10;;
5912;SDS011;2982;42.684;23.356;2022-11-06T02:34:41;14.25;;;9.15;;
5912;SDS011;2982;42.684;23.356;2022-11-06T02:37:11;11.82;;;7.57;;
5912;SDS011;2982;42.684;23.356;2022-11-06T02:39:41;8.30;;;7.57;;
5912;SDS011;2982;42.684;23.356;2022-11-06T02:42:09;12.38;;;8.82;;
5912;SDS011;2982;42.684;23.356;2022-11-06T02:44:37;10.77;;;8.82;;
5912;SDS011;2982;42.684;23.356;2022-11-06T02:47:05;10.20;;;7.60;;
5912;SDS011;2982;42.684;23.356;2022-11-06T02:49:38;9.65;;;7.57;;
5912;SDS011;2982;42.684;23.356;2022-11-06T02:52:09;13.52;;;8.05;;
5912;SDS011;2982;42.684;23.356;2022-11-06T02:54:40;10.68;;;7.63;;
5912;SDS011;2982;42.684;23.356;2022-11-06T02:57:10;18.02;;;7.25;;
5912;SDS011;2982;42.684;23.356;2022-11-06T03:00:21;8.20;;;7.05;;
5912;SDS011;2982;42.684;23.356;2022-11-06T03:02:35;10.30;;;7.10;;
5912;SDS011;2982;42.684;23.356;2022-11-06T03:07:43;10.85;;;7.43;;
5912;SDS011;2982;42.684;23.356;2022-11-06T03:10:11;8.45;;;6.53;;
5912;SDS011;2982;42.684;23.356;2022-11-06T03:15:32;7.05;;;6.43;;
5912;SDS011;2982;42.684;23.356;2022-11-06T03:18:26;6.65;;;5.95;;
5912;SDS011;2982;42.684;23.356;2022-11-06T03:23:24;9.27;;;6.78;;
5912;SDS011;2982;42.684;23.356;2022-11-06T03:26:18;12.98;;;8.68;;
5912;SDS011;2982;42.684;23.356;2022-11-06T03:29:06;13.63;;;8.73;;
5912;SDS011;2982;42.684;23.356;2022-11-06T03:31:39;13.73;;;9.40;;
5912;SDS011;2982;42.684;23.356;2022-11-06T03:34:16;15.70;;;9.23;;
5912;SDS011;2982;42.684;23.356;2022-11-06T03:36:50;14.90;;;8.63;;
5912;SDS011;2982;42.684;23.356;2022-11-06T03:39:22;12.75;;;9.27;;
5912;SDS011;2982;42.684;23.356;2022-11-06T03:41:58;8.38;;;7.50;;
5912;SDS011;2982;42.684;23.356;2022-11-06T03:44:35;9.57;;;8.13;;
5912;SDS011;2982;42.684;23.356;2022-11-06T03:49:43;18.45;;;8.63;;
5912;SDS011;2982;42.684;23.356;2022-11-06T03:52:16;12.18;;;8.27;;
5912;SDS011;2982;42.684;23.356;2022-11-06T03:54:49;10.68;;;8.15;;
5912;SDS011;2982;42.684;23.356;2022-11-06T03:57:55;12.85;;;8.90;;
5912;SDS011;2982;42.684;23.356;2022-11-06T04:00:25;16.95;;;8.48;;
5912;SDS011;2982;42.684;23.356;2022-11-06T04:02:51;16.02;;;7.60;;
5912;SDS011;2982;42.684;23.356;2022-11-06T04:05:21;10.40;;;7.65;;
5912;SDS011;2982;42.684;23.356;2022-11-06T04:07:49;9.63;;;7.22;;
5912;SDS011;2982;42.684;23.356;2022-11-06T04:10:19;14.77;;;9.20;;
5912;SDS011;2982;42.684;23.356;2022-11-06T04:12:44;10.98;;;7.32;;
5912;SDS011;2982;42.684;23.356;2022-11-06T04:15:13;12.85;;;8.25;;
5912;SDS011;2982;42.684;23.356;2022-11-06T04:17:40;12.88;;;8.00;;
5912;SDS011;2982;42.684;23.356;2022-11-06T04:20:08;10.45;;;7.55;;
5912;SDS011;2982;42.684;23.356;2022-11-06T04:36:15;10.10;;;8.27;;
5912;SDS011;2982;42.684;23.356;2022-11-06T04:39:08;13.10;;;8.40;;
5912;SDS011;2982;42.684;23.356;2022-11-06T04:41:57;11.48;;;7.80;;
5912;SDS011;2982;42.684;23.356;2022-11-06T04:44:36;16.30;;;8.90;;
5912;SDS011;2982;42.684;23.356;2022-11-06T04:47:05;12.13;;;8.70;;
5912;SDS011;2982;42.684;23.356;2022-11-06T04:49:33;14.35;;;8.18;;
5912;SDS011;2982;42.684;23.356;2022-11-06T04:52:01;14.32;;;10.13;;
5912;SDS011;2982;42.684;23.356;2022-11-06T04:54:31;13.80;;;8.80;;
5912;SDS011;2982;42.684;23.356;2022-11-06T04:56:58;7.78;;;7.05;;
5912;SDS011;2982;42.684;23.356;2022-11-06T04:59:24;9.15;;;8.20;;
5912;SDS011;2982;42.684;23.356;2022-11-06T05:01:50;13.20;;;9.52;;
5912;SDS011;2982;42.684;23.356;2022-11-06T05:04:15;12.02;;;9.32;;
5912;SDS011;2982;42.684;23.356;2022-11-06T05:06:40;14.07;;;9.00;;
5912;SDS011;2982;42.684;23.356;2022-11-06T05:09:06;12.02;;;8.65;;
5912;SDS011;2982;42.684;23.356;2022-11-06T05:11:31;18.02;;;9.05;;
5912;SDS011;2982;42.684;23.356;2022-11-06T05:13:56;17.80;;;10.10;;
5912;SDS011;2982;42.684;23.356;2022-11-06T05:16:21;12.95;;;9.85;;
5912;SDS011;2982;42.684;23.356;2022-11-06T05:18:47;14.95;;;9.65;;
5912;SDS011;2982;42.684;23.356;2022-11-06T05:21:12;13.43;;;9.70;;
5912;SDS011;2982;42.684;23.356;2022-11-06T05:23:37;19.85;;;10.05;;
5912;SDS011;2982;42.684;23.356;2022-11-06T05:26:03;10.82;;;9.25;;
5912;SDS011;2982;42.684;23.356;2022-11-06T05:28:29;16.48;;;9.25;;
5912;SDS011;2982;42.684;23.356;2022-11-06T05:30:54;10.38;;;9.48;;
5912;SDS011;2982;42.684;23.356;2022-11-06T05:33:20;12.30;;;9.65;;
5912;SDS011;2982;42.684;23.356;2022-11-06T05:35:45;12.07;;;9.13;;
5912;SDS011;2982;42.684;23.356;2022-11-06T05:38:10;17.30;;;10.35;;
5912;SDS011;2982;42.684;23.356;2022-11-06T05:40:36;17.08;;;9.48;;
5912;SDS011;2982;42.684;23.356;2022-11-06T05:43:01;13.95;;;11.05;;
5912;SDS011;2982;42.684;23.356;2022-11-06T05:45:26;14.68;;;9.70;;
5912;SDS011;2982;42.684;23.356;2022-11-06T05:47:51;12.25;;;10.00;;
5912;SDS011;2982;42.684;23.356;2022-11-06T05:50:17;17.10;;;9.80;;
5912;SDS011;2982;42.684;23.356;2022-11-06T05:52:42;13.68;;;9.48;;
5912;SDS011;2982;42.684;23.356;2022-11-06T05:55:08;11.63;;;10.43;;
5912;SDS011;2982;42.684;23.356;2022-11-06T05:57:33;10.70;;;9.60;;
5912;SDS011;2982;42.684;23.356;2022-11-06T05:59:59;12.55;;;9.57;;
5912;SDS011;2982;42.684;23.356;2022-11-06T06:02:24;13.68;;;10.40;;
5912;SDS011;2982;42.684;23.356;2022-11-06T06:04:49;14.95;;;10.40;;
5912;SDS011;2982;42.684;23.356;2022-11-06T06:07:15;19.88;;;10.57;;
5912;SDS011;2982;42.684;23.356;2022-11-06T06:09:40;12.65;;;10.15;;
5912;SDS011;2982;42.684;23.356;2022-11-06T06:12:05;11.23;;;10.02;;
5912;SDS011;2982;42.684;23.356;2022-11-06T06:14:33;10.70;;;9.55;;
5912;SDS011;2982;42.684;23.356;2022-11-06T06:16:58;13.93;;;10.35;;
5912;SDS011;2982;42.684;23.356;2022-11-06T06:19:23;17.65;;;11.80;;
5912;SDS011;2982;42.684;23.356;2022-11-06T06:21:49;13.43;;;9.82;;
5912;SDS011;2982;42.684;23.356;2022-11-06T06:24:14;17.90;;;10.80;;
5912;SDS011;2982;42.684;23.356;2022-11-06T06:26:39;17.63;;;11.35;;
5912;SDS011;2982;42.684;23.356;2022-11-06T06:29:05;15.60;;;11.80;;
5912;SDS011;2982;42.684;23.356;2022-11-06T06:31:30;19.75;;;12.02;;
5912;SDS011;2982;42.684;23.356;2022-11-06T06:33:55;14.05;;;11.10;;
5912;SDS011;2982;42.684;23.356;2022-11-06T06:36:21;15.57;;;11.48;;
5912;SDS011;2982;42.684;23.356;2022-11-06T06:38:46;18.40;;;11.32;;
5912;SDS011;2982;42.684;23.356;2022-11-06T06:41:17;24.35;;;12.00;;
5912;SDS011;2982;42.684;23.356;2022-11-06T06:43:42;18.60;;;12.18;;
5912;SDS011;2982;42.684;23.356;2022-11-06T06:46:07;15.93;;;11.95;;
5912;SDS011;2982;42.684;23.356;2022-11-06T06:48:34;16.15;;;12.23;;
5912;SDS011;2982;42.684;23.356;2022-11-06T06:51:00;12.75;;;10.68;;
5912;SDS011;2982;42.684;23.356;2022-11-06T06:53:26;15.40;;;11.55;;
5912;SDS011;2982;42.684;23.356;2022-11-06T06:55:52;16.30;;;11.90;;
5912;SDS011;2982;42.684;23.356;2022-11-06T06:58:17;16.90;;;11.55;;
5912;SDS011;2982;42.684;23.356;2022-11-06T07:00:43;15.60;;;10.75;;
5912;SDS011;2982;42.684;23.356;2022-11-06T07:03:09;15.40;;;11.45;;
5912;SDS011;2982;42.684;23.356;2022-11-06T07:05:34;13.98;;;12.05;;
5912;SDS011;2982;42.684;23.356;2022-11-06T07:08:00;16.65;;;11.00;;
5912;SDS011;2982;42.684;23.356;2022-11-06T07:10:26;18.52;;;11.55;;
5912;SDS011;2982;42.684;23.356;2022-11-06T07:12:51;17.27;;;12.07;;
5912;SDS011;2982;42.684;23.356;2022-11-06T07:15:16;20.00;;;12.38;;
5912;SDS011;2982;42.684;23.356;2022-11-06T07:17:42;13.95;;;10.98;;
5912;SDS011;2982;42.684;23.356;2022-11-06T07:20:07;14.32;;;12.07;;
5912;SDS011;2982;42.684;23.356;2022-11-06T07:22:33;20.80;;;12.88;;
5912;SDS011;2982;42.684;23.356;2022-11-06T07:24:59;16.15;;;12.32;;
5912;SDS011;2982;42.684;23.356;2022-11-06T07:27:24;13.60;;;12.20;;
5912;SDS011;2982;42.684;23.356;2022-11-06T07:29:50;18.52;;;13.00;;
5912;SDS011;2982;42.684;23.356;2022-11-06T07:32:15;14.98;;;11.52;;
5912;SDS011;2982;42.684;23.356;2022-11-06T07:34:40;16.73;;;12.38;;
5912;SDS011;2982;42.684;23.356;2022-11-06T07:37:06;14.85;;;11.70;;
5912;SDS011;2982;42.684;23.356;2022-11-06T07:39:32;16.48;;;12.55;;
5912;SDS011;2982;42.684;23.356;2022-11-06T07:41:58;23.42;;;13.20;;
5912;SDS011;2982;42.684;23.356;2022-11-06T07:44:23;18.52;;;12.65;;
5912;SDS011;2982;42.684;23.356;2022-11-06T07:46:48;19.58;;;12.60;;
5912;SDS011;2982;42.684;23.356;2022-11-06T07:49:14;19.25;;;12.50;;
5912;SDS011;2982;42.684;23.356;2022-11-06T07:51:39;13.35;;;11.93;;
5912;SDS011;2982;42.684;23.356;2022-11-06T07:54:04;16.17;;;12.82;;
5912;SDS011;2982;42.684;23.356;2022-11-06T07:56:30;20.02;;;12.88;;
5912;SDS011;2982;42.684;23.356;2022-11-06T07:58:56;18.10;;;12.23;;
5912;SDS011;2982;42.684;23.356;2022-11-06T08:01:21;17.83;;;12.98;;
5912;SDS011;2982;42.684;23.356;2022-11-06T08:03:46;18.58;;;12.15;;
5912;SDS011;2982;42.684;23.356;2022-11-06T08:06:12;17.70;;;12.25;;
5912;SDS011;2982;42.684;23.356;2022-11-06T08:08:37;14.00;;;12.65;;
5912;SDS011;2982;42.684;23.356;2022-11-06T08:11:07;18.38;;;12.93;;
5912;SDS011;2982;42.684;23.356;2022-11-06T08:13:34;21.42;;;14.20;;
5912;SDS011;2982;42.684;23.356;2022-11-06T08:16:04;20.52;;;13.25;;
5912;SDS011;2982;42.684;23.356;2022-11-06T08:18:29;15.57;;;13.77;;
5912;SDS011;2982;42.684;23.356;2022-11-06T08:20:54;19.40;;;12.95;;
5912;SDS011;2982;42.684;23.356;2022-11-06T08:23:20;21.80;;;15.25;;
5912;SDS011;2982;42.684;23.356;2022-11-06T08:25:45;22.90;;;12.73;;
5912;SDS011;2982;42.684;23.356;2022-11-06T08:28:10;15.77;;;12.35;;
5912;SDS011;2982;42.684;23.356;2022-11-06T08:30:36;20.85;;;15.02;;
5912;SDS011;2982;42.684;23.356;2022-11-06T08:33:02;17.10;;;15.30;;
5912;SDS011;2982;42.684;23.356;2022-11-06T08:35:29;22.58;;;14.73;;
5912;SDS011;2982;42.684;23.356;2022-11-06T08:37:55;21.55;;;15.35;;
5912;SDS011;2982;42.684;23.356;2022-11-06T08:40:21;19.30;;;14.65;;
5912;SDS011;2982;42.684;23.356;2022-11-06T08:42:46;19.90;;;14.88;;
5912;SDS011;2982;42.684;23.356;2022-11-06T08:45:11;27.02;;;15.60;;
5912;SDS011;2982;42.684;23.356;2022-11-06T08:47:37;16.85;;;14.90;;
5912;SDS011;2982;42.684;23.356;2022-11-06T08:50:02;19.48;;;14.45;;
5912;SDS011;2982;42.684;23.356;2022-11-06T08:52:28;18.80;;;14.00;;
5912;SDS011;2982;42.684;23.356;2022-11-06T08:54:53;18.75;;;15.38;;
5912;SDS011;2982;42.684;23.356;2022-11-06T08:57:18;22.17;;;15.73;;
5912;SDS011;2982;42.684;23.356;2022-11-06T08:59:43;14.27;;;11.50;;
5912;SDS011;2982;42.684;23.356;2022-11-06T09:02:12;17.17;;;13.35;;
5912;SDS011;2982;42.684;23.356;2022-11-06T09:04:38;15.07;;;12.85;;
5912;SDS011;2982;42.684;23.356;2022-11-06T09:07:03;16.15;;;13.00;;
5912;SDS011;2982;42.684;23.356;2022-11-06T09:09:29;20.98;;;14.95;;
5912;SDS011;2982;42.684;23.356;2022-11-06T09:11:54;17.42;;;13.90;;
5912;SDS011;2982;42.684;23.356;2022-11-06T09:14:19;19.90;;;14.88;;
5912;SDS011;2982;42.684;23.356;2022-11-06T09:16:44;20.83;;;15.63;;
5912;SDS011;2982;42.684;23.356;2022-11-06T09:19:10;20.77;;;14.95;;
5912;SDS011;2982;42.684;23.356;2022-11-06T09:21:35;18.50;;;13.32;;
5912;SDS011;2982;42.684;23.356;2022-11-06T09:24:00;18.27;;;12.75;;
5912;SDS011;2982;42.684;23.356;2022-11-06T09:26:25;15.80;;;13.13;;
5912;SDS011;2982;42.684;23.356;2022-11-06T09:28:51;17.05;;;12.52;;
5912;SDS011;2982;42.684;23.356;2022-11-06T09:31:16;12.35;;;11.25;;
5912;SDS011;2982;42.684;23.356;2022-11-06T09:33:41;16.63;;;13.10;;
5912;SDS011;2982;42.684;23.356;2022-11-06T09:36:07;11.68;;;10.50;;
5912;SDS011;2982;42.684;23.356;2022-11-06T09:38:32;15.23;;;10.75;;
5912;SDS011;2982;42.684;23.356;2022-11-06T09:40:58;10.95;;;9.88;;
5912;SDS011;2982;42.684;23.356;2022-11-06T09:43:41;12.95;;;10.55;;
5912;SDS011;2982;42.684;23.356;2022-11-06T09:46:23;10.68;;;9.60;;
5912;SDS011;2982;42.684;23.356;2022-11-06T09:48:58;11.85;;;10.73;;
5912;SDS011;2982;42.684;23.356;2022-11-06T09:51:42;10.75;;;9.80;;
5912;SDS011;2982;42.684;23.356;2022-11-06T09:54:19;10.35;;;9.27;;
5912;SDS011;2982;42.684;23.356;2022-11-06T09:56:51;8.98;;;8.23;;
5912;SDS011;2982;42.684;23.356;2022-11-06T09:59:22;8.77;;;7.88;;
5912;SDS011;2982;42.684;23.356;2022-11-06T10:01:54;10.60;;;7.72;;
5912;SDS011;2982;42.684;23.356;2022-11-06T10:07:02;8.35;;;7.45;;
5912;SDS011;2982;42.684;23.356;2022-11-06T10:09:28;8.15;;;7.53;;
5912;SDS011;2982;42.684;23.356;2022-11-06T10:12:01;9.25;;;8.30;;
5912;SDS011;2982;42.684;23.356;2022-11-06T10:17:28;10.48;;;9.38;;
5912;SDS011;2982;42.684;23.356;2022-11-06T10:20:25;8.85;;;8.07;;
5912;SDS011;2982;42.684;23.356;2022-11-06T10:23:04;9.10;;;8.15;;
5912;SDS011;2982;42.684;23.356;2022-11-06T10:36:34;8.20;;;7.53;;
5912;SDS011;2982;42.684;23.356;2022-11-06T10:39:09;8.38;;;7.68;;
5912;SDS011;2982;42.684;23.356;2022-11-06T10:41:39;6.30;;;5.80;;
5912;SDS011;2982;42.684;23.356;2022-11-06T10:44:13;7.07;;;5.47;;
5912;SDS011;2982;42.684;23.356;2022-11-06T10:46:46;6.28;;;4.97;;
5912;SDS011;2982;42.684;23.356;2022-11-06T10:57:27;7.10;;;6.50;;
5912;SDS011;2982;42.684;23.356;2022-11-06T10:59:56;9.65;;;8.75;;
5912;SDS011;2982;42.684;23.356;2022-11-06T11:02:29;7.30;;;6.70;;
5912;SDS011;2982;42.684;23.356;2022-11-06T11:04:58;6.60;;;5.97;;
5912;SDS011;2982;42.684;23.356;2022-11-06T11:07:23;7.10;;;6.50;;
5912;SDS011;2982;42.684;23.356;2022-11-06T11:09:53;6.13;;;5.68;;
5912;SDS011;2982;42.684;23.356;2022-11-06T11:12:19;5.00;;;4.43;;
5912;SDS011;2982;42.684;23.356;2022-11-06T11:15:03;5.00;;;4.65;;
5912;SDS011;2982;42.684;23.356;2022-11-06T11:17:29;5.97;;;5.53;;
5912;SDS011;2982;42.684;23.356;2022-11-06T11:19:54;6.70;;;5.68;;
5912;SDS011;2982;42.684;23.356;2022-11-06T11:22:20;10.50;;;6.18;;
5912;SDS011;2982;42.684;23.356;2022-11-06T11:25:02;7.25;;;6.57;;
5912;SDS011;2982;42.684;23.356;2022-11-06T11:27:28;8.13;;;7.35;;
5912;SDS011;2982;42.684;23.356;2022-11-06T11:29:55;9.65;;;8.85;;
5912;SDS011;2982;42.684;23.356;2022-11-06T11:32:21;9.20;;;8.50;;
5912;SDS011;2982;42.684;23.356;2022-11-06T11:34:50;10.48;;;9.50;;
5912;SDS011;2982;42.684;23.356;2022-11-06T11:39:52;11.52;;;10.45;;
5912;SDS011;2982;42.684;23.356;2022-11-06T11:44:46;13.10;;;11.68;;
5912;SDS011;2982;42.684;23.356;2022-11-06T11:47:23;14.30;;;12.32;;
5912;SDS011;2982;42.684;23.356;2022-11-06T11:49:49;13.00;;;11.70;;
5912;SDS011;2982;42.684;23.356;2022-11-06T11:52:18;12.82;;;11.68;;
5912;SDS011;2982;42.684;23.356;2022-11-06T11:54:46;13.60;;;11.65;;
5912;SDS011;2982;42.684;23.356;2022-11-06T11:57:23;11.50;;;10.38;;
5912;SDS011;2982;42.684;23.356;2022-11-06T11:59:55;13.88;;;9.43;;
5912;SDS011;2982;42.684;23.356;2022-11-06T12:02:26;12.15;;;10.68;;
5912;SDS011;2982;42.684;23.356;2022-11-06T12:05:31;11.00;;;9.95;;
5912;SDS011;2982;42.684;23.356;2022-11-06T12:07:56;9.38;;;8.48;;
5912;SDS011;2982;42.684;23.356;2022-11-06T12:13:05;9.30;;;8.43;;
5912;SDS011;2982;42.684;23.356;2022-11-06T12:18:41;8.85;;;8.13;;
5912;SDS011;2982;42.684;23.356;2022-11-06T12:23:59;8.13;;;6.72;;
5912;SDS011;2982;42.684;23.356;2022-11-06T12:26:31;8.65;;;6.68;;
5912;SDS011;2982;42.684;23.356;2022-11-06T12:29:17;9.30;;;6.82;;
5912;SDS011;2982;42.684;23.356;2022-11-06T12:34:33;7.45;;;6.80;;
5912;SDS011;2982;42.684;23.356;2022-11-06T12:37:19;7.30;;;6.15;;
5912;SDS011;2982;42.684;23.356;2022-11-06T12:50:50;9.45;;;6.50;;
5912;SDS011;2982;42.684;23.356;2022-11-06T12:56:12;6.85;;;6.25;;
5912;SDS011;2982;42.684;23.356;2022-11-06T13:04:13;7.32;;;6.28;;
5912;SDS011;2982;42.684;23.356;2022-11-06T13:12:31;6.10;;;5.53;;
5912;SDS011;2982;42.684;23.356;2022-11-06T13:17:53;7.60;;;5.88;;
5912;SDS011;2982;42.684;23.356;2022-11-06T13:20:27;8.30;;;5.97;;
5912;SDS011;2982;42.684;23.356;2022-11-06T13:23:09;6.13;;;5.63;;
5912;SDS011;2982;42.684;23.356;2022-11-06T13:25:46;6.88;;;6.30;;
5912;SDS011;2982;42.684;23.356;2022-11-06T13:28:24;7.90;;;6.50;;
5912;SDS011;2982;42.684;23.356;2022-11-06T13:31:02;6.90;;;6.30;;
5912;SDS011;2982;42.684;23.356;2022-11-06T13:33:34;7.25;;;6.65;;
5912;SDS011;2982;42.684;23.356;2022-11-06T13:36:04;7.18;;;6.47;;
5912;SDS011;2982;42.684;23.356;2022-11-06T13:38:36;7.38;;;6.03;;
5912;SDS011;2982;42.684;23.356;2022-11-06T13:41:13;7.65;;;6.95;;
5912;SDS011;2982;42.684;23.356;2022-11-06T13:44:08;7.25;;;5.93;;
5912;SDS011;2982;42.684;23.356;2022-11-06T13:46:36;7.80;;;6.97;;
5912;SDS011;2982;42.684;23.356;2022-11-06T13:49:25;6.60;;;5.72;;
5912;SDS011;2982;42.684;23.356;2022-11-06T13:52:01;6.40;;;5.90;;
5912;SDS011;2982;42.684;23.356;2022-11-06T13:54:57;6.35;;;5.63;;
5912;SDS011;2982;42.684;23.356;2022-11-06T14:00:09;7.82;;;6.93;;
5912;SDS011;2982;42.684;23.356;2022-11-06T14:05:24;8.63;;;7.85;;
5912;SDS011;2982;42.684;23.356;2022-11-06T14:07:57;7.63;;;6.95;;
5912;SDS011;2982;42.684;23.356;2022-11-06T14:10:31;6.97;;;6.47;;
5912;SDS011;2982;42.684;23.356;2022-11-06T14:13:00;6.32;;;5.82;;
5912;SDS011;2982;42.684;23.356;2022-11-06T14:15:36;5.78;;;5.38;;
5912;SDS011;2982;42.684;23.356;2022-11-06T14:18:03;6.10;;;5.70;;
5912;SDS011;2982;42.684;23.356;2022-11-06T14:20:34;5.88;;;5.47;;
5912;SDS011;2982;42.684;23.356;2022-11-06T14:26:07;5.20;;;4.80;;
5912;SDS011;2982;42.684;23.356;2022-11-06T14:28:40;8.05;;;5.88;;
5912;SDS011;2982;42.684;23.356;2022-11-06T14:31:10;5.88;;;5.40;;
5912;SDS011;2982;42.684;23.356;2022-11-06T14:34:32;6.18;;;5.55;;
5912;SDS011;2982;42.684;23.356;2022-11-06T14:36:57;5.68;;;5.22;;
5912;SDS011;2982;42.684;23.356;2022-11-06T14:44:47;5.85;;;5.35;;
5912;SDS011;2982;42.684;23.356;2022-11-06T14:52:44;7.20;;;6.10;;
5912;SDS011;2982;42.684;23.356;2022-11-06T14:55:36;6.45;;;5.88;;
5912;SDS011;2982;42.684;23.356;2022-11-06T15:00:50;5.78;;;5.28;;
5912;SDS011;2982;42.684;23.356;2022-11-06T15:05:47;5.57;;;5.18;;
5912;SDS011;2982;42.684;23.356;2022-11-06T15:08:12;6.10;;;5.20;;
5912;SDS011;2982;42.684;23.356;2022-11-06T15:16:26;5.95;;;5.30;;
5912;SDS011;2982;42.684;23.356;2022-11-06T15:19:19;8.52;;;5.55;;
5912;SDS011;2982;42.684;23.356;2022-11-06T15:24:41;6.88;;;5.05;;
5912;SDS011;2982;42.684;23.356;2022-11-06T15:27:11;5.55;;;5.10;;
5912;SDS011;2982;42.684;23.356;2022-11-06T15:29:41;5.57;;;5.18;;
5912;SDS011;2982;42.684;23.356;2022-11-06T15:34:39;5.13;;;4.60;;
5912;SDS011;2982;42.684;23.356;2022-11-06T15:37:13;4.82;;;4.53;;
5912;SDS011;2982;42.684;23.356;2022-11-06T15:39:54;6.90;;;4.70;;
5912;SDS011;2982;42.684;23.356;2022-11-06T15:42:24;6.05;;;5.00;;
5912;SDS011;2982;42.684;23.356;2022-11-06T15:45:04;5.68;;;5.28;;
5912;SDS011;2982;42.684;23.356;2022-11-06T15:47:38;8.35;;;5.07;;
5912;SDS011;2982;42.684;23.356;2022-11-06T15:50:20;5.18;;;4.68;;
5912;SDS011;2982;42.684;23.356;2022-11-06T15:52:47;6.13;;;5.55;;
5912;SDS011;2982;42.684;23.356;2022-11-06T15:55:14;6.97;;;5.03;;
5912;SDS011;2982;42.684;23.356;2022-11-06T15:57:48;6.25;;;5.43;;
5912;SDS011;2982;42.684;23.356;2022-11-06T16:02:49;6.30;;;5.55;;
5912;SDS011;2982;42.684;23.356;2022-11-06T16:05:16;5.43;;;4.93;;
5912;SDS011;2982;42.684;23.356;2022-11-06T16:07:44;6.63;;;5.88;;
5912;SDS011;2982;42.684;23.356;2022-11-06T16:10:14;7.88;;;6.03;;
5912;SDS011;2982;42.684;23.356;2022-11-06T16:12:42;9.02;;;5.60;;
5912;SDS011;2982;42.684;23.356;2022-11-06T16:18:13;7.78;;;6.53;;
5912;SDS011;2982;42.684;23.356;2022-11-06T16:20:52;7.47;;;6.75;;
5912;SDS011;2982;42.684;23.356;2022-11-06T16:23:47;7.63;;;6.03;;
5912;SDS011;2982;42.684;23.356;2022-11-06T16:26:23;6.88;;;6.13;;
5912;SDS011;2982;42.684;23.356;2022-11-06T16:29:11;6.82;;;6.32;;
5912;SDS011;2982;42.684;23.356;2022-11-06T16:32:07;8.40;;;5.57;;
5912;SDS011;2982;42.684;23.356;2022-11-06T16:34:42;6.43;;;5.88;;
5912;SDS011;2982;42.684;23.356;2022-11-06T16:39:49;15.57;;;8.35;;
5912;SDS011;2982;42.684;23.356;2022-11-06T16:44:55;21.70;;;15.63;;
5912;SDS011;2982;42.684;23.356;2022-11-06T16:47:28;19.70;;;16.77;;
5912;SDS011;2982;42.684;23.356;2022-11-06T16:49:54;25.20;;;18.15;;
5912;SDS011;2982;42.684;23.356;2022-11-06T16:52:36;26.55;;;19.95;;
5912;SDS011;2982;42.684;23.356;2022-11-06T16:58:12;26.40;;;20.05;;
5912;SDS011;2982;42.684;23.356;2022-11-06T17:05:19;23.05;;;17.35;;
5912;SDS011;2982;42.684;23.356;2022-11-06T17:07:47;19.70;;;16.67;;
5912;SDS011;2982;42.684;23.356;2022-11-06T17:13:01;32.53;;;25.70;;
5912;SDS011;2982;42.684;23.356;2022-11-06T17:15:42;48.00;;;30.35;;
5912;SDS011;2982;42.684;23.356;2022-11-06T17:18:13;45.40;;;27.40;;
5912;SDS011;2982;42.684;23.356;2022-11-06T17:20:42;32.03;;;23.63;;
5912;SDS011;2982;42.684;23.356;2022-11-06T17:23:09;35.33;;;22.88;;
5912;SDS011;2982;42.684;23.356;2022-11-06T17:25:35;25.50;;;22.73;;
5912;SDS011;2982;42.684;23.356;2022-11-06T17:28:00;28.30;;;22.40;;
5912;SDS011;2982;42.684;23.356;2022-11-06T17:30:25;31.00;;;21.65;;
5912;SDS011;2982;42.684;23.356;2022-11-06T17:32:51;26.83;;;21.20;;
5912;SDS011;2982;42.684;23.356;2022-11-06T17:35:16;25.92;;;19.48;;
5912;SDS011;2982;42.684;23.356;2022-11-06T17:37:41;26.23;;;20.33;;
5912;SDS011;2982;42.684;23.356;2022-11-06T17:40:07;24.80;;;19.27;;
5912;SDS011;2982;42.684;23.356;2022-11-06T17:42:33;23.70;;;19.27;;
5912;SDS011;2982;42.684;23.356;2022-11-06T17:44:58;23.60;;;17.98;;
5912;SDS011;2982;42.684;23.356;2022-11-06T17:47:23;21.40;;;18.30;;